Time;durP1;ratioP1;P1;durP2;ratioP2;P2;SDS_P1;SDS_P2;PMS_P1;PMS_P2;Temp;Humidity;BMP_temperature;BMP_pressure;BME280_temperature;BME280_humidity;BME280_pressure;Samples;Min_cycle;Max_cycle;Signal;HPM_P1;HPM_P2
2022/05/20 00:01:05;;;;;;;1.63;1.00;;;13.50;99.90;;;;;;4162154;28;20376;-42
2022/05/20 00:03:08;;;;;;;0.88;0.82;;;13.50;99.90;;;;;;4161300;28;20291;-43
2022/05/20 00:05:11;;;;;;;0.80;0.80;;;13.50;99.90;;;;;;4161004;28;20534;-45
2022/05/20 00:07:16;;;;;;;0.95;0.80;;;13.40;99.90;;;;;;4162244;28;20048;-44
2022/05/20 00:09:18;;;;;;;2.25;0.80;;;13.20;99.90;;;;;;4162525;28;20087;-43
2022/05/20 00:11:20;;;;;;;0.80;0.80;;;13.20;99.90;;;;;;4162045;28;20463;-43
2022/05/20 00:13:27;;;;;;;1.88;1.17;;;13.10;99.90;;;;;;4160913;28;20061;-44
2022/05/20 00:15:31;;;;;;;0.80;0.80;;;13.10;99.90;;;;;;4162400;28;20033;-43
2022/05/20 00:17:33;;;;;;;2.13;0.90;;;13.00;99.90;;;;;;4161365;28;20230;-43
2022/05/20 00:19:36;;;;;;;0.85;0.80;;;13.10;99.90;;;;;;4162027;28;20095;-43
2022/05/20 00:21:38;;;;;;;1.92;1.02;;;13.10;99.90;;;;;;4161674;28;20038;-43
2022/05/20 00:23:40;;;;;;;0.95;0.95;;;13.20;99.90;;;;;;4161982;28;20136;-44
2022/05/20 00:25:45;;;;;;;0.90;0.90;;;13.30;99.90;;;;;;4161802;28;20485;-43
2022/05/20 00:27:48;;;;;;;1.58;1.10;;;13.30;99.90;;;;;;4161731;28;20041;-43
2022/05/20 00:29:52;;;;;;;2.10;0.80;;;13.40;99.90;;;;;;4161658;28;20493;-43
2022/05/20 00:31:54;;;;;;;0.90;0.90;;;13.20;99.90;;;;;;4161673;28;20100;-43
2022/05/20 00:33:57;;;;;;;1.10;1.10;;;13.30;99.90;;;;;;4161907;28;20503;-43
2022/05/20 00:35:59;;;;;;;0.80;0.80;;;13.20;99.90;;;;;;4161822;28;20037;-43
2022/05/20 00:38:02;;;;;;;1.88;1.00;;;13.10;99.90;;;;;;4160398;28;20037;-43
2022/05/20 00:40:05;;;;;;;0.90;0.90;;;13.10;99.90;;;;;;4161459;28;20049;-43
2022/05/20 00:42:16;;;;;;;2.00;1.05;;;13.10;99.90;;;;;;4161564;28;20053;-43
2022/05/20 00:44:18;;;;;;;3.80;1.13;;;13.20;99.90;;;;;;4161758;28;20110;-43
2022/05/20 00:46:22;;;;;;;0.90;0.90;;;13.20;99.90;;;;;;4160287;28;20041;-43
2022/05/20 00:48:26;;;;;;;0.90;0.90;;;13.40;99.90;;;;;;4160240;28;20103;-44
2022/05/20 00:50:28;;;;;;;1.02;0.80;;;13.40;99.90;;;;;;4161549;28;20045;-43
2022/05/20 00:52:34;;;;;;;0.85;0.85;;;13.30;99.90;;;;;;4161395;28;20045;-43
2022/05/20 00:54:40;;;;;;;1.00;1.00;;;13.20;99.90;;;;;;4161977;28;20447;-43
2022/05/20 00:56:55;;;;;;;1.10;1.10;;;13.10;99.90;;;;;;4161773;28;20041;-43
2022/05/20 00:58:58;;;;;;;1.35;1.35;;;13.10;99.90;;;;;;4159110;28;20067;-44
2022/05/20 01:01:04;;;;;;;4.78;1.00;;;13.00;99.90;;;;;;4161567;28;20120;-43
2022/05/20 01:03:09;;;;;;;1.00;1.00;;;12.90;99.90;;;;;;4161336;28;20505;-44
2022/05/20 01:05:21;;;;;;;1.02;0.90;;;12.80;99.90;;;;;;4161571;28;20041;-44
2022/05/20 01:07:25;;;;;;;1.33;0.95;;;13.00;99.90;;;;;;4161366;28;20392;-43
2022/05/20 01:09:28;;;;;;;0.90;0.90;;;13.00;99.90;;;;;;4161531;28;20037;-43
2022/05/20 01:11:30;;;;;;;2.40;1.00;;;12.90;99.90;;;;;;4161283;28;20049;-43
2022/05/20 01:13:34;;;;;;;0.93;0.93;;;13.00;99.90;;;;;;4160087;28;20037;-44
2022/05/20 01:15:36;;;;;;;0.82;0.80;;;13.00;99.90;;;;;;4161661;28;20037;-43
2022/05/20 01:17:39;;;;;;;1.50;1.00;;;13.00;99.90;;;;;;4160905;28;20417;-43
2022/05/20 01:19:46;;;;;;;1.00;1.00;;;12.80;99.90;;;;;;4161606;28;20037;-43
2022/05/20 01:21:49;;;;;;;1.55;1.15;;;12.90;99.90;;;;;;4145165;28;20116;-43
2022/05/20 01:23:51;;;;;;;0.90;0.90;;;12.70;99.90;;;;;;4152800;28;20516;-43
2022/05/20 01:25:57;;;;;;;1.00;1.00;;;12.70;99.90;;;;;;4161868;28;20045;-43
2022/05/20 01:28:01;;;;;;;1.20;1.20;;;12.70;99.90;;;;;;4161171;28;20132;-43
2022/05/20 01:30:05;;;;;;;0.80;0.80;;;12.60;99.90;;;;;;4161168;28;20527;-43
2022/05/20 01:32:07;;;;;;;2.05;1.65;;;12.80;99.90;;;;;;4161427;28;20472;-43
2022/05/20 01:34:10;;;;;;;;;;;12.80;99.90;;;;;;4162266;28;20083;-42
2022/05/20 01:36:15;;;;;;;0.90;0.90;;;12.80;99.90;;;;;;4164299;28;19921;-43
2022/05/20 01:38:18;;;;;;;1.10;1.00;;;12.80;99.90;;;;;;4164432;28;20505;-43
2022/05/20 01:40:20;;;;;;;1.35;1.25;;;12.80;99.90;;;;;;4146764;28;20042;-43
2022/05/20 01:42:35;;;;;;;0.90;0.90;;;12.80;99.90;;;;;;4163076;28;20042;-43
2022/05/20 01:44:43;;;;;;;1.00;1.00;;;12.80;99.90;;;;;;4164646;28;20053;-43
2022/05/20 01:46:56;;;;;;;1.25;0.80;;;12.70;99.90;;;;;;4164129;28;20044;-42
2022/05/20 01:49:16;;;;;;;;;;;12.50;99.90;;;;;;4164652;28;20109;-43
2022/05/20 01:51:23;;;;;;;1.15;0.90;;;12.40;99.90;;;;;;4153185;28;20395;-44
2022/05/20 01:53:33;;;;;;;2.05;1.00;;;12.20;99.90;;;;;;4162610;28;20041;-43
2022/05/20 01:56:04;;;;;;;3.42;1.00;;;12.00;99.90;;;;;;4164090;28;20463;-44
2022/05/20 01:58:16;;;;;;;2.05;0.90;;;11.90;99.90;;;;;;4155011;28;20049;-43
2022/05/20 02:00:30;;;;;;;2.00;1.08;;;12.00;99.90;;;;;;4164219;28;20571;-43
2022/05/20 02:03:00;;;;;;;2.28;1.27;;;12.00;99.90;;;;;;4162486;28;20080;-43
2022/05/20 02:05:23;;;;;;;1.30;1.30;;;11.90;99.90;;;;;;4162919;28;20170;-43
2022/05/20 02:07:29;;;;;;;0.90;0.90;;;12.10;99.90;;;;;;4162790;28;20061;-43
2022/05/20 02:09:45;;;;;;;1.38;1.00;;;12.00;99.90;;;;;;4163821;28;20615;-43
2022/05/20 02:11:51;;;;;;;1.17;1.00;;;12.00;99.90;;;;;;4164128;28;20041;-43
2022/05/20 02:14:07;;;;;;;0.80;0.80;;;12.00;99.90;;;;;;4163951;28;20041;-43
2022/05/20 02:16:19;;;;;;;1.15;1.15;;;11.90;99.90;;;;;;4147579;28;20068;-43
2022/05/20 02:18:29;;;;;;;0.90;0.90;;;12.00;99.90;;;;;;4159022;28;20046;-44
2022/05/20 02:20:42;;;;;;;1.75;1.00;;;12.10;99.90;;;;;;4163550;28;20042;-42
2022/05/20 02:22:50;;;;;;;0.80;0.80;;;12.10;99.90;;;;;;4163738;28;20449;-43
2022/05/20 02:24:54;;;;;;;1.00;1.00;;;12.10;99.90;;;;;;4163673;28;20242;-43
2022/05/20 02:27:05;;;;;;;1.13;1.13;;;12.00;99.90;;;;;;4163375;28;20043;-43
2022/05/20 02:29:22;;;;;;;0.90;0.90;;;11.90;99.90;;;;;;4163773;28;20095;-43
2022/05/20 02:31:52;;;;;;;4.28;1.25;;;11.80;99.90;;;;;;4163602;28;20041;-43
2022/05/20 02:33:54;;;;;;;0.90;0.90;;;11.60;99.90;;;;;;4163515;28;20041;-43
2022/05/20 02:36:08;;;;;;;1.63;1.50;;;11.70;99.90;;;;;;4163980;28;20171;-43
2022/05/20 02:38:16;;;;;;;1.85;1.02;;;11.70;99.90;;;;;;4163670;28;20075;-43
2022/05/20 02:40:20;;;;;;;1.10;1.00;;;11.80;99.90;;;;;;4163269;28;20147;-43
2022/05/20 02:42:28;;;;;;;1.75;1.10;;;11.90;99.90;;;;;;4163546;28;20059;-44
2022/05/20 02:44:31;;;;;;;1.10;1.10;;;11.70;99.90;;;;;;4163345;28;20045;-42
2022/05/20 02:46:33;;;;;;;2.30;1.00;;;11.60;99.90;;;;;;4162892;28;20045;-43
2022/05/20 02:48:36;;;;;;;1.75;1.00;;;11.50;99.90;;;;;;4163761;28;20041;-43
2022/05/20 02:50:38;;;;;;;0.80;0.80;;;11.40;99.90;;;;;;4163206;28;20041;-43
2022/05/20 02:52:40;;;;;;;1.27;1.10;;;11.40;99.90;;;;;;4159658;28;20103;-42
2022/05/20 02:54:42;;;;;;;0.95;0.95;;;11.50;99.90;;;;;;4147193;28;20045;-43
2022/05/20 02:56:44;;;;;;;2.28;0.90;;;11.60;99.90;;;;;;4163333;28;20041;-43
2022/05/20 03:05:51;;;;;;;1.05;1.05;;;11.30;99.90;;;;;;4163173;28;20040;-43
2022/05/20 03:07:54;;;;;;;1.15;1.15;;;11.20;99.90;;;;;;4162991;28;20527;-42
2022/05/20 03:09:56;;;;;;;1.42;1.20;;;11.00;99.90;;;;;;4163253;28;20048;-42
2022/05/20 03:11:59;;;;;;;1.20;1.20;;;10.90;99.90;;;;;;4162929;28;20517;-43
2022/05/20 03:14:04;;;;;;;1.02;1.02;;;10.80;99.90;;;;;;4163378;28;20095;-43
2022/05/20 03:16:09;;;;;;;1.25;1.15;;;10.90;99.90;;;;;;4162913;28;20041;-43
2022/05/20 03:18:13;;;;;;;0.80;0.80;;;10.90;99.90;;;;;;4162542;28;20666;-44
2022/05/20 03:20:15;;;;;;;0.90;0.90;;;11.00;99.90;;;;;;4162628;28;20045;-43
2022/05/20 03:22:17;;;;;;;1.15;1.15;;;11.10;99.90;;;;;;4162854;28;20041;-43
2022/05/20 03:24:19;;;;;;;1.38;0.90;;;11.20;99.90;;;;;;4162963;28;20041;-43
2022/05/20 03:26:21;;;;;;;1.10;1.00;;;11.30;99.90;;;;;;4162858;28;20045;-42
2022/05/20 03:28:23;;;;;;;1.60;1.00;;;11.20;99.90;;;;;;4162669;28;20034;-42
2022/05/20 03:30:26;;;;;;;1.73;1.25;;;11.00;99.90;;;;;;4162612;28;20497;-43
2022/05/20 03:32:28;;;;;;;2.17;0.80;;;10.90;99.90;;;;;;4162702;28;20037;-43
2022/05/20 03:34:30;;;;;;;1.77;1.20;;;10.80;99.90;;;;;;4162791;28;20033;-42
2022/05/20 03:36:38;;;;;;;2.28;1.33;;;10.90;99.90;;;;;;4162542;28;20116;-43
2022/05/20 03:38:40;;;;;;;1.45;1.45;;;11.00;99.90;;;;;;4162649;28;20041;-43
2022/05/20 03:40:43;;;;;;;1.10;1.10;;;11.00;99.90;;;;;;4162299;28;20413;-43
2022/05/20 03:42:45;;;;;;;1.75;1.20;;;10.90;99.90;;;;;;4162686;28;20033;-43
2022/05/20 03:44:47;;;;;;;2.67;1.23;;;11.00;99.90;;;;;;4162600;28;20042;-42
2022/05/20 03:46:51;;;;;;;2.92;1.17;;;10.80;99.90;;;;;;4162477;28;20046;-42
2022/05/20 03:48:54;;;;;;;1.00;1.00;;;10.80;99.90;;;;;;4161339;28;20041;-43
2022/05/20 03:51:10;;;;;;;1.38;1.13;;;10.80;99.90;;;;;;4162173;28;20489;-43
2022/05/20 03:53:13;;;;;;;1.00;1.00;;;10.70;99.90;;;;;;4162417;28;20045;-43
2022/05/20 03:55:15;;;;;;;1.13;1.13;;;10.60;99.90;;;;;;4162234;28;20531;-42
2022/05/20 03:57:17;;;;;;;1.30;1.30;;;10.40;99.90;;;;;;4161738;28;20038;-43
2022/05/20 03:59:22;;;;;;;4.05;1.17;;;10.40;99.90;;;;;;4162427;28;20041;-44
2022/05/20 04:03:46;;;;;;;1.02;1.02;;;10.60;99.90;;;;;;4162588;28;20099;-42
2022/05/20 04:05:48;;;;;;;1.20;1.20;;;10.70;99.90;;;;;;4162056;28;20497;-43
2022/05/20 04:07:51;;;;;;;1.48;1.48;;;10.50;99.90;;;;;;4161909;28;20389;-43
2022/05/20 04:09:53;;;;;;;1.35;1.35;;;10.60;99.90;;;;;;4162326;28;20037;-42
2022/05/20 04:11:58;;;;;;;1.10;1.10;;;10.80;99.90;;;;;;4161858;28;20103;-43
2022/05/20 04:14:01;;;;;;;1.17;1.05;;;10.90;99.90;;;;;;4161676;28;20129;-42
2022/05/20 04:16:04;;;;;;;;;;;10.90;99.90;;;;;;4162190;28;20112;-43
2022/05/20 04:18:06;;;;;;;1.73;1.63;;;10.90;99.90;;;;;;4161687;28;20329;-43
2022/05/20 04:20:09;;;;;;;1.58;0.98;;;10.90;99.90;;;;;;4161619;28;20052;-42
2022/05/20 04:22:14;;;;;;;1.35;1.10;;;10.80;99.90;;;;;;4159971;28;20525;-43
2022/05/20 04:24:16;;;;;;;1.25;1.25;;;10.80;99.90;;;;;;4162096;28;20079;-42
2022/05/20 04:26:18;;;;;;;1.17;1.02;;;10.80;99.90;;;;;;4161830;28;20136;-42
2022/05/20 04:28:21;;;;;;;4.60;1.70;;;10.90;99.90;;;;;;4161414;28;20057;-43
2022/05/20 04:30:23;;;;;;;6.25;1.65;;;10.90;99.90;;;;;;4161846;28;20056;-42
2022/05/20 04:32:25;;;;;;;5.57;1.20;;;10.80;99.90;;;;;;4162051;28;20512;-43
2022/05/20 04:34:27;;;;;;;1.75;1.20;;;10.80;99.90;;;;;;4161293;28;20099;-43
2022/05/20 04:36:29;;;;;;;2.38;1.27;;;10.80;99.90;;;;;;4161185;28;20460;-42
2022/05/20 04:38:32;;;;;;;1.15;1.15;;;10.80;99.90;;;;;;4146845;28;20534;-44
2022/05/20 04:40:34;;;;;;;;;;;10.80;99.90;;;;;;4154325;28;20080;-43
2022/05/20 04:47:22;;;;;;;1.63;1.30;;;11.00;99.90;;;;;;4161507;28;20587;-44
2022/05/20 04:49:29;;;;;;;1.65;1.30;;;11.10;99.90;;;;;;4161548;28;20037;-43
2022/05/20 04:51:32;;;;;;;1.30;1.20;;;11.10;99.90;;;;;;4161583;28;20041;-43
2022/05/20 04:55:55;;;;;;;2.78;1.10;;;11.20;99.90;;;;;;4161504;28;20095;-44
2022/05/20 04:57:58;;;;;;;1.95;1.25;;;11.30;99.90;;;;;;4161734;28;20452;-42
2022/05/20 05:00:20;;;;;;;1.27;1.20;;;11.20;99.90;;;;;;4161823;28;20056;-44
2022/05/20 05:02:22;;;;;;;1.00;1.00;;;11.10;99.90;;;;;;4161180;28;20037;-42
2022/05/20 05:04:25;;;;;;;3.33;1.15;;;11.00;99.90;;;;;;4161784;28;20053;-43
2022/05/20 05:06:27;;;;;;;4.93;1.77;;;11.00;99.90;;;;;;4161702;28;20128;-42
2022/05/20 05:08:29;;;;;;;1.13;1.00;;;11.00;99.90;;;;;;4162296;28;20409;-43
2022/05/20 05:10:31;;;;;;;1.65;1.55;;;11.20;99.90;;;;;;4165079;28;20044;-43
2022/05/20 05:12:34;;;;;;;1.50;1.50;;;11.20;99.90;;;;;;4163192;28;20428;-42
2022/05/20 05:14:45;;;;;;;2.05;1.80;;;11.40;99.90;;;;;;4164535;28;20037;-42
2022/05/20 05:16:47;;;;;;;1.60;1.50;;;11.40;99.90;;;;;;4164757;28;20461;-42
2022/05/20 05:18:52;;;;;;;1.55;1.45;;;11.30;99.90;;;;;;4163806;28;20041;-44
2022/05/20 05:20:54;;;;;;;2.00;1.13;;;11.30;99.90;;;;;;4164696;28;20041;-44
2022/05/20 05:22:57;;;;;;;1.35;1.35;;;11.30;99.90;;;;;;4163844;28;20041;-44
2022/05/20 05:24:59;;;;;;;;;;;11.30;99.90;;;;;;4165215;28;20049;-44
2022/05/20 05:27:02;;;;;;;3.20;1.70;;;11.30;99.90;;;;;;4164373;28;19921;-45
2022/05/20 05:29:04;;;;;;;1.63;1.38;;;11.50;99.90;;;;;;4164741;28;20069;-44
2022/05/20 05:31:07;;;;;;;2.35;1.00;;;11.60;99.90;;;;;;4164581;28;20049;-44
2022/05/20 05:33:09;;;;;;;1.45;1.40;;;11.60;99.90;;;;;;4163602;28;20052;-44
2022/05/20 05:35:14;;;;;;;1.77;1.67;;;11.60;99.90;;;;;;4163656;28;20045;-44
2022/05/20 05:37:16;;;;;;;2.17;1.23;;;11.60;99.90;;;;;;4160362;28;20041;-44
2022/05/20 05:39:19;;;;;;;1.67;1.60;;;11.60;99.90;;;;;;4148312;28;20033;-43
2022/05/20 05:41:21;;;;;;;1.42;1.33;;;11.80;99.90;;;;;;4158282;28;20124;-47
2022/05/20 05:43:23;;;;;;;3.65;1.25;;;11.90;99.90;;;;;;4164546;28;20060;-44
2022/05/20 05:45:27;;;;;;;2.40;1.40;;;12.00;99.90;;;;;;4148231;28;20071;-44
2022/05/20 05:47:30;;;;;;;1.50;1.40;;;12.00;99.90;;;;;;4156096;28;20037;-44
2022/05/20 05:49:32;;;;;;;1.63;1.63;;;12.00;99.90;;;;;;4164852;28;20041;-46
2022/05/20 05:51:35;;;;;;;4.53;1.63;;;12.10;99.90;;;;;;4164127;28;20429;-44
2022/05/20 05:53:37;;;;;;;1.73;1.63;;;12.20;99.90;;;;;;4158519;28;20038;-44
2022/05/20 05:55:40;;;;;;;;;;;12.30;99.90;;;;;;4134958;28;20054;-44
2022/05/20 05:57:42;;;;;;;1.95;1.48;;;12.30;99.90;;;;;;4151203;28;19932;-44
2022/05/20 05:59:44;;;;;;;3.13;1.75;;;12.40;99.90;;;;;;4152116;28;20037;-44
2022/05/20 06:01:47;;;;;;;1.25;1.10;;;12.50;99.90;;;;;;4164143;28;20041;-45
2022/05/20 06:03:50;;;;;;;2.45;2.17;;;12.60;99.90;;;;;;4164031;28;20041;-45
2022/05/20 06:05:52;;;;;;;1.40;1.30;;;12.70;99.90;;;;;;4163946;28;20073;-44
2022/05/20 06:07:54;;;;;;;2.60;1.73;;;13.10;99.90;;;;;;4164072;28;20052;-45
2022/05/20 06:09:57;;;;;;;2.28;1.70;;;13.20;99.90;;;;;;4164444;28;20046;-43
2022/05/20 06:12:01;;;;;;;;;;;13.20;99.90;;;;;;4164577;28;20454;-44
2022/05/20 06:14:03;;;;;;;1.00;1.00;;;13.40;99.90;;;;;;4147895;28;19933;-44
2022/05/20 06:16:06;;;;;;;1.60;1.13;;;13.60;99.90;;;;;;4155135;28;20040;-44
2022/05/20 06:18:15;;;;;;;1.27;1.27;;;13.60;99.90;;;;;;4163932;28;20060;-43
2022/05/20 06:20:18;;;;;;;3.22;1.98;;;13.70;99.90;;;;;;4163651;28;20044;-45
2022/05/20 06:22:20;;;;;;;10.02;1.65;;;13.90;99.90;;;;;;4164124;28;20049;-44
2022/05/20 06:24:22;;;;;;;1.17;1.08;;;14.10;99.90;;;;;;4164124;28;20508;-44
2022/05/20 06:26:24;;;;;;;1.13;1.05;;;14.40;99.90;;;;;;4163872;28;20049;-43
2022/05/20 06:28:27;;;;;;;1.58;1.10;;;14.30;99.90;;;;;;4163772;28;20092;-45
2022/05/20 06:30:30;;;;;;;3.80;1.13;;;14.50;99.90;;;;;;4164114;28;20145;-43
2022/05/20 06:32:33;;;;;;;1.50;1.17;;;14.80;99.90;;;;;;4163901;28;20386;-44
2022/05/20 06:41:37;;;;;;;1.35;1.35;;;15.60;99.90;;;;;;4163612;28;20049;-44
2022/05/20 06:43:39;;;;;;;1.00;0.88;;;16.00;99.90;;;;;;4163849;28;20048;-45
2022/05/20 06:45:43;;;;;;;1.42;1.27;;;16.30;99.90;;;;;;4163790;28;20096;-44
2022/05/20 06:48:05;;;;;;;1.85;1.30;;;16.30;99.90;;;;;;4163533;28;20033;-43
2022/05/20 06:50:11;;;;;;;0.80;0.80;;;16.60;99.90;;;;;;4162372;28;20068;-44
2022/05/20 06:52:13;;;;;;;0.90;0.90;;;17.20;99.90;;;;;;4163751;28;20045;-44
2022/05/20 06:54:36;;;;;;;1.30;0.80;;;17.60;99.90;;;;;;4154597;28;20073;-44
2022/05/20 06:56:38;;;;;;;;;;;17.50;99.90;;;;;;4147496;28;20033;-44
2022/05/20 06:58:40;;;;;;;1.98;1.00;;;17.50;99.90;;;;;;4147489;28;19925;-46
2022/05/20 07:00:42;;;;;;;1.02;0.80;;;17.80;99.90;;;;;;4147013;28;20042;-45
2022/05/20 07:02:44;;;;;;;1.00;1.00;;;17.90;99.90;;;;;;4147126;28;20045;-44
2022/05/20 07:04:49;;;;;;;0.90;0.80;;;18.10;99.90;;;;;;4161266;28;20037;-44
2022/05/20 07:06:52;;;;;;;0.85;0.80;;;18.10;99.90;;;;;;4163272;28;20045;-44
2022/05/20 07:08:54;;;;;;;2.45;1.10;;;18.10;99.90;;;;;;4163294;28;20447;-44
2022/05/20 07:10:56;;;;;;;1.63;0.90;;;18.20;99.90;;;;;;4163372;28;20042;-43
2022/05/20 07:13:13;;;;;;;0.82;0.82;;;18.50;99.90;;;;;;4163191;28;20040;-44
2022/05/20 07:15:15;;;;;;;;;;;18.70;99.90;;;;;;4163725;28;20087;-45
2022/05/20 07:17:20;;;;;;;0.70;0.70;;;18.80;99.90;;;;;;4153894;28;20007;-43
2022/05/20 07:19:23;;;;;;;5.93;0.80;;;19.00;99.90;;;;;;4163093;28;20044;-45
2022/05/20 07:21:25;;;;;;;0.90;0.75;;;19.10;99.90;;;;;;4163198;28;20124;-44
2022/05/20 07:23:29;;;;;;;0.70;0.70;;;19.20;99.90;;;;;;4161926;28;20057;-44
2022/05/20 07:25:33;;;;;;;1.08;0.90;;;19.30;99.90;;;;;;4163140;28;20105;-43
2022/05/20 07:27:36;;;;;;;1.25;0.70;;;19.80;99.90;;;;;;4162871;28;20045;-45
2022/05/20 07:29:38;;;;;;;0.70;0.70;;;20.20;99.90;;;;;;4162865;28;20048;-44
2022/05/20 07:31:40;;;;;;;1.80;0.80;;;20.50;99.90;;;;;;4162007;28;20091;-44
2022/05/20 07:33:43;;;;;;;1.00;0.85;;;20.60;99.90;;;;;;4162440;28;20111;-44
2022/05/20 07:35:46;;;;;;;1.13;0.70;;;20.20;99.90;;;;;;4163029;28;20041;-44
2022/05/20 07:37:50;;;;;;;1.05;0.80;;;20.20;99.90;;;;;;4162635;28;20416;-44
2022/05/20 07:39:52;;;;;;;1.67;0.73;;;20.30;99.90;;;;;;4162513;28;20042;-44
2022/05/20 07:41:55;;;;;;;;;;;20.40;99.90;;;;;;4162969;28;20042;-44
2022/05/20 07:43:58;;;;;;;1.27;0.80;;;20.50;99.90;;;;;;4162951;28;20217;-45
2022/05/20 07:46:00;;;;;;;;;;;20.70;99.90;;;;;;4163274;28;20053;-45
2022/05/20 07:48:02;;;;;;;1.20;0.80;;;21.00;99.90;;;;;;4162399;28;19932;-44
2022/05/20 07:50:06;;;;;;;1.02;0.70;;;21.10;99.90;;;;;;4162574;28;20034;-44
2022/05/20 07:52:11;;;;;;;1.42;0.60;;;21.10;99.90;;;;;;4152048;28;20111;-44
2022/05/20 07:54:19;;;;;;;0.85;0.65;;;21.20;99.90;;;;;;4147500;28;20038;-45
2022/05/20 07:56:25;;;;;;;0.60;0.60;;;21.20;99.90;;;;;;4162494;28;20401;-45
2022/05/20 07:58:31;;;;;;;1.75;0.70;;;21.20;99.90;;;;;;4162259;28;20405;-45
2022/05/20 08:00:51;;;;;;;0.70;0.70;;;21.00;99.90;;;;;;4162363;28;20069;-44
2022/05/20 08:02:55;;;;;;;;;;;21.10;99.90;;;;;;4162801;28;20037;-44
2022/05/20 08:05:01;;;;;;;1.85;0.70;;;21.00;99.90;;;;;;4162486;28;20000;-44
2022/05/20 08:07:05;;;;;;;1.42;0.77;;;21.30;99.90;;;;;;4162318;28;20083;-44
2022/05/20 08:09:07;;;;;;;2.45;0.73;;;21.50;99.90;;;;;;4162214;28;20037;-44
2022/05/20 08:11:09;;;;;;;;;;;21.90;99.90;;;;;;4162454;28;20037;-43
2022/05/20 08:13:11;;;;;;;2.55;0.98;;;21.80;99.90;;;;;;4162503;28;19921;-45
2022/05/20 08:15:15;;;;;;;1.63;0.60;;;22.10;99.90;;;;;;4145751;28;20465;-43
2022/05/20 08:17:24;;;;;;;1.10;0.50;;;21.90;99.90;;;;;;4152690;28;20088;-44
2022/05/20 08:19:27;;;;;;;2.28;0.60;;;21.50;99.90;;;;;;4162093;28;20096;-44
2022/05/20 08:21:30;;;;;;;0.60;0.60;;;21.70;99.90;;;;;;4162045;28;20033;-43
2022/05/20 08:23:32;;;;;;;;;;;22.30;99.90;;;;;;4162509;28;20059;-44
2022/05/20 08:25:36;;;;;;;0.75;0.52;;;22.40;99.90;;;;;;4162307;28;19931;-44
2022/05/20 08:27:39;;;;;;;0.60;0.60;;;22.60;99.90;;;;;;4162183;28;20033;-44
2022/05/20 08:29:41;;;;;;;0.63;0.63;;;22.80;99.90;;;;;;4161628;28;20713;-44
2022/05/20 08:31:45;;;;;;;1.13;0.60;;;22.90;99.90;;;;;;4162126;28;20037;-43
2022/05/20 08:33:47;;;;;;;0.82;0.75;;;23.10;99.90;;;;;;4161827;28;20106;-43
2022/05/20 08:35:49;;;;;;;;;;;22.90;99.90;;;;;;4161310;28;20083;-44
2022/05/20 08:37:52;;;;;;;1.02;0.60;;;22.80;99.90;;;;;;4162082;28;19921;-44
2022/05/20 08:39:54;;;;;;;0.57;0.50;;;23.10;99.90;;;;;;4161631;28;20095;-44
2022/05/20 08:41:58;;;;;;;1.52;0.60;;;23.30;99.90;;;;;;4161777;28;20088;-44
2022/05/20 08:44:01;;;;;;;1.48;0.50;;;23.30;99.90;;;;;;4153542;28;20132;-43
2022/05/20 08:46:08;;;;;;;0.55;0.55;;;23.30;99.90;;;;;;4161927;28;20041;-43
2022/05/20 08:48:11;;;;;;;4.00;0.55;;;23.40;99.90;;;;;;4162283;28;20057;-43
2022/05/20 08:50:18;;;;;;;0.93;0.70;;;23.50;99.90;;;;;;4161596;28;20033;-44
2022/05/20 08:52:20;;;;;;;6.63;0.50;;;23.70;99.00;;;;;;4161773;28;20041;-44
2022/05/20 08:54:22;;;;;;;0.73;0.50;;;23.80;99.90;;;;;;4161856;28;20397;-44
2022/05/20 08:56:25;;;;;;;;;;;24.10;99.90;;;;;;4147219;28;20132;-43
2022/05/20 08:58:27;;;;;;;1.65;0.50;;;24.40;99.90;;;;;;4150283;28;19968;-44
2022/05/20 09:00:31;;;;;;;1.02;0.50;;;24.20;99.40;;;;;;4161795;28;20068;-43
2022/05/20 09:02:33;;;;;;;0.68;0.50;;;24.30;98.50;;;;;;4161665;28;20129;-43
2022/05/20 09:04:35;;;;;;;2.00;0.50;;;24.30;96.80;;;;;;4158995;28;20056;-45
2022/05/20 09:06:39;;;;;;;;;;;24.30;98.70;;;;;;4145923;28;20038;-44
2022/05/20 09:08:42;;;;;;;1.67;0.50;;;24.20;96.90;;;;;;4159688;28;20312;-44
2022/05/20 09:10:55;;;;;;;4.88;0.50;;;24.40;98.40;;;;;;4159986;28;20041;-44
2022/05/20 09:16:02;;;;;;;1.48;0.50;;;25.10;98.20;;;;;;4145517;28;20411;-41
2022/05/20 09:18:06;;;;;;;0.40;0.40;;;24.90;96.70;;;;;;4154961;28;20041;-41
2022/05/20 09:20:14;;;;;;;0.85;0.50;;;25.00;96.20;;;;;;4161566;28;20145;-42
2022/05/20 09:22:17;;;;;;;0.40;0.40;;;25.20;97.10;;;;;;4145525;28;20042;-41
2022/05/20 09:24:21;;;;;;;1.60;0.60;;;25.70;96.30;;;;;;4152848;28;20037;-41
2022/05/20 09:26:31;;;;;;;0.52;0.45;;;25.50;94.90;;;;;;4160209;28;20045;-42
2022/05/20 09:28:50;;;;;;;1.30;0.50;;;25.40;95.60;;;;;;4161391;28;20366;-41
2022/05/20 09:31:02;;;;;;;1.20;0.40;;;25.00;95.80;;;;;;4161425;28;20045;-41
2022/05/20 09:33:18;;;;;;;0.77;0.40;;;25.10;95.70;;;;;;4161282;28;20045;-41
2022/05/20 09:35:24;;;;;;;2.35;0.50;;;25.70;95.70;;;;;;4161449;28;20371;-41
2022/05/20 09:37:29;;;;;;;1.25;0.60;;;26.20;94.60;;;;;;4151127;28;20038;-41
2022/05/20 09:39:35;;;;;;;0.68;0.50;;;25.90;94.40;;;;;;4146311;28;20076;-41
2022/05/20 09:41:49;;;;;;;1.55;0.47;;;25.90;95.20;;;;;;4161280;28;20142;-41
2022/05/20 09:44:00;;;;;;;1.05;0.50;;;25.90;96.20;;;;;;4161469;28;20050;-41
2022/05/20 09:46:03;;;;;;;1.48;0.50;;;25.30;95.10;;;;;;4157614;28;20478;-42
2022/05/20 09:48:06;;;;;;;1.58;0.50;;;25.10;95.00;;;;;;4155480;28;20042;-40
2022/05/20 09:50:27;;;;;;;0.98;0.50;;;25.80;96.30;;;;;;4159748;28;20124;-41
2022/05/20 09:52:33;;;;;;;2.55;0.50;;;26.00;95.90;;;;;;4157476;28;20124;-42
2022/05/20 09:54:41;;;;;;;0.47;0.43;;;26.00;94.80;;;;;;4161377;28;20128;-41
2022/05/20 09:57:03;;;;;;;3.22;0.50;;;26.20;95.80;;;;;;4161454;28;20091;-41
2022/05/20 09:59:25;;;;;;;1.85;0.55;;;26.00;96.00;;;;;;4168043;28;20079;-41
2022/05/20 10:01:29;;;;;;;0.98;0.50;;;26.00;96.40;;;;;;4154093;28;20501;-42
2022/05/20 10:03:32;;;;;;;0.77;0.55;;;25.80;94.90;;;;;;4159171;28;20079;-41
2022/05/20 10:05:54;;;;;;;1.00;0.50;;;25.90;96.50;;;;;;4162892;28;20100;-41
2022/05/20 10:08:21;;;;;;;4.32;0.50;;;25.50;95.60;;;;;;4162584;28;20045;-41
2022/05/20 10:11:03;;;;;;;1.25;0.50;;;25.60;95.20;;;;;;4162679;28;20092;-40
2022/05/20 10:13:09;;;;;;;0.77;0.50;;;25.80;96.20;;;;;;4158589;28;20100;-40
2022/05/20 10:15:27;;;;;;;0.47;0.47;;;25.80;94.70;;;;;;4155601;28;20099;-42
2022/05/20 10:17:44;;;;;;;1.10;0.50;;;26.00;95.90;;;;;;4152794;28;20053;-41
2022/05/20 10:19:50;;;;;;;0.68;0.50;;;26.30;93.50;;;;;;4150540;28;20107;-41
2022/05/20 10:21:59;;;;;;;1.33;0.50;;;26.00;94.30;;;;;;4161825;28;20053;-41
2022/05/20 10:24:45;;;;;;;1.48;0.50;;;26.20;95.10;;;;;;4155845;28;20045;-42
2022/05/20 10:27:17;;;;;;;0.47;0.47;;;26.60;95.90;;;;;;4147221;28;20552;-41
2022/05/20 10:34:17;;;;;;;2.05;0.50;;;26.60;93.00;;;;;;4163158;28;20381;-41
2022/05/20 10:36:56;;;;;;;0.60;0.40;;;26.30;91.50;;;;;;4163630;28;20044;-41
2022/05/20 10:39:25;;;;;;;1.35;0.40;;;26.20;92.10;;;;;;4142560;28;20062;-41
2022/05/20 10:42:27;;;;;;;0.70;0.50;;;26.60;92.10;;;;;;4154437;28;20037;-42
2022/05/20 10:50:12;;;;;;;1.27;0.32;;;26.90;91.10;;;;;;4161366;28;20042;-41
2022/05/20 10:52:28;;;;;;;1.55;0.40;;;27.60;90.70;;;;;;4154204;28;20524;-42
2022/05/20 10:54:49;;;;;;;0.40;0.30;;;27.00;87.70;;;;;;4163549;28;20572;-41
2022/05/20 10:57:13;;;;;;;0.93;0.30;;;26.60;86.30;;;;;;4163572;28;20436;-41
2022/05/20 10:59:34;;;;;;;0.40;0.40;;;26.90;86.20;;;;;;4163467;28;20063;-42
2022/05/20 11:01:59;;;;;;;3.20;0.40;;;27.70;89.50;;;;;;4162219;28;20437;-41
2022/05/20 11:04:21;;;;;;;2.15;0.40;;;27.50;86.00;;;;;;4163240;28;20129;-41
2022/05/20 11:06:54;;;;;;;0.50;0.40;;;27.40;83.40;;;;;;4163186;28;20053;-41
2022/05/20 11:09:04;;;;;;;2.05;1.00;;;27.40;84.90;;;;;;4144074;28;20136;-41
2022/05/20 11:11:35;;;;;;;0.30;0.30;;;27.90;86.90;;;;;;4147830;28;20041;-42
2022/05/20 11:13:44;;;;;;;0.52;0.40;;;28.30;82.00;;;;;;4161602;28;20034;-42
2022/05/20 11:15:55;;;;;;;0.28;0.28;;;28.60;84.50;;;;;;4148986;28;20080;-42
2022/05/20 11:18:09;;;;;;;1.35;0.30;;;28.30;76.80;;;;;;4162501;28;20072;-43
2022/05/20 11:20:37;;;;;;;0.30;0.30;;;27.80;78.20;;;;;;4160231;28;20417;-43
2022/05/20 11:22:51;;;;;;;0.38;0.30;;;28.10;82.50;;;;;;4148721;28;20125;-43
2022/05/20 11:25:05;;;;;;;3.33;0.43;;;28.80;75.60;;;;;;4161522;28;20121;-42
2022/05/20 11:27:13;;;;;;;1.50;0.30;;;29.20;77.20;;;;;;4161265;28;20044;-42
2022/05/20 11:29:28;;;;;;;0.30;0.30;;;29.40;85.10;;;;;;4160472;28;20038;-42
2022/05/20 11:31:39;;;;;;;0.30;0.30;;;29.60;78.50;;;;;;4159926;28;20702;-43
2022/05/20 11:34:15;;;;;;;1.65;0.40;;;29.00;75.70;;;;;;4146329;28;20474;-42
2022/05/20 11:36:52;;;;;;;0.30;0.30;;;29.00;75.30;;;;;;4147710;28;20046;-43
2022/05/20 11:39:04;;;;;;;1.95;0.40;;;28.40;74.10;;;;;;4146208;28;20053;-42
2022/05/20 11:41:25;;;;;;;0.40;0.38;;;28.80;77.10;;;;;;4154862;28;20077;-42